Portada
METAR-TAF:

METAR-TAF

Aeropuertos :

Aeropuerto de Heringsdorf

Heringsdorf, Alemania

latitud: 53-53N, longitud: 014-09E, altitud: 28 m

Observación

El informe se hizo hace 2 horas y 20 minutos, a las 13:50 UTC
Viento 8 kt del este-sureste
Temperatura 29°C
Humedad 27%
Presión 1022 hPa
Visibilidad 10 km o más
sin nubes por debajo de 1500 m y sin presencia de cumulonimbus.

METAR: EDAH 061350Z 12008KT CAVOK 29/08 Q1022

Hora: 18:10 (16:10 UTC)

Pronóstico

El informe se hizo hace 5 horas y 10 minutos, a las 11:00 UTC
Pronóstico válido del 06 a las 12 UTC al 06 a las 21 UTC
Viento 8 kt del sureste
Visibilidad 10 km o más
sin nubes por debajo de 1500 m y sin presencia de cumulonimbus.
Evolucionando progresivamente
del 06 a las 14 UTC al 06 a las 17 UTC
Viento 5 kt del este-noreste

TAF: EDAH 061100Z 0612/0621 13008KT CAVOK BECMG 0614/0617 07005KT

Observaciones y pronósticos meteorológicos de más de 4000 aeropuertos (mensajes METAR y TAF).

Los puntos amarillos y rojos representan las estaciones disponibles.

Ponga el ratón en el punto deseado para ver el nombre de la estación.

Haga clic para ver las observaciones y los pronósticos meteorológicos.

Para cambiar el mapa : haga clic en los botones verdes con una cruz de color negro para hacer un zoom, en el botón verde con un guión para alejar o en las flechas verdes para mapas adyacentes.


METAR-TAF: